Time;durP1;ratioP1;P1;durP2;ratioP2;P2;SDS_P1;SDS_P2;PMS_P1;PMS_P2;Temp;Humidity;BMP_temperature;BMP_pressure;BME280_temperature;BME280_humidity;BME280_pressure;Samples;Min_cycle;Max_cycle;Signal;HPM_P1;HPM_P2
2022/01/22 00:02:20;;;;;;;9.50;4.60;;;5.40;99.90;;;;;;5032474;28;20495;-85
2022/01/22 00:04:46;;;;;;;15.38;5.28;;;5.50;99.90;;;;;;5021990;28;20039;-85
2022/01/22 00:07:12;;;;;;;14.20;4.53;;;5.50;99.90;;;;;;5032493;28;20033;-85
2022/01/22 00:09:40;;;;;;;10.20;4.90;;;5.40;99.90;;;;;;5016766;28;20025;-85
2022/01/22 00:12:08;;;;;;;9.35;4.45;;;5.50;99.90;;;;;;5050481;28;20017;-84
2022/01/22 00:14:34;;;;;;;12.55;4.20;;;5.40;99.90;;;;;;5018929;28;20550;-85
2022/01/22 00:17:01;;;;;;;9.00;4.40;;;5.40;99.90;;;;;;5031617;28;20049;-85
2022/01/22 00:19:28;;;;;;;11.55;4.40;;;5.40;99.90;;;;;;5031321;28;20129;-85
2022/01/22 00:21:54;;;;;;;9.63;4.20;;;5.40;99.90;;;;;;5030675;28;20021;-84
2022/01/22 00:24:20;;;;;;;15.23;4.47;;;5.40;99.90;;;;;;5032060;28;20116;-84
2022/01/22 00:26:48;;;;;;;9.75;3.70;;;5.40;99.90;;;;;;5032080;28;20119;-84
2022/01/22 00:29:16;;;;;;;11.20;3.92;;;5.40;99.90;;;;;;5031873;28;20041;-84
2022/01/22 00:31:41;;;;;;;9.73;3.80;;;5.40;99.90;;;;;;5031322;28;20021;-85
2022/01/22 00:34:08;;;;;;;9.93;3.90;;;5.40;99.90;;;;;;5012700;28;20028;-84
2022/01/22 00:36:34;;;;;;;11.98;4.03;;;5.40;99.90;;;;;;5019408;28;20101;-85
2022/01/22 00:39:00;;;;;;;11.27;4.30;;;5.40;99.90;;;;;;5022599;28;20021;-85
2022/01/22 00:41:25;;;;;;;9.00;4.07;;;5.40;99.90;;;;;;5026589;28;20028;-87
2022/01/22 00:43:51;;;;;;;11.50;4.03;;;5.40;99.90;;;;;;5022968;28;20022;-85
2022/01/22 00:46:17;;;;;;;13.32;3.95;;;5.40;99.90;;;;;;5018018;28;20086;-85
2022/01/22 00:48:43;;;;;;;14.10;4.40;;;5.40;99.90;;;;;;5015640;28;20656;-83
2022/01/22 00:51:08;;;;;;;12.13;4.18;;;5.40;99.90;;;;;;5030307;28;20031;-85
2022/01/22 00:53:34;;;;;;;9.00;3.92;;;5.40;99.90;;;;;;5049230;28;20035;-84
2022/01/22 00:56:00;;;;;;;11.40;4.40;;;5.40;99.90;;;;;;5012777;28;20556;-84
2022/01/22 00:58:25;;;;;;;10.20;4.07;;;5.40;99.90;;;;;;5012460;28;20663;-83
2022/01/22 01:00:51;;;;;;;9.95;3.75;;;5.40;99.90;;;;;;5022205;28;20028;-85
2022/01/22 01:03:17;;;;;;;9.75;4.05;;;5.40;99.90;;;;;;5049514;28;20029;-86
2022/01/22 01:05:42;;;;;;;8.40;3.92;;;5.40;99.90;;;;;;5049496;28;20024;-85
2022/01/22 01:08:08;;;;;;;11.60;4.10;;;5.40;99.90;;;;;;5050437;28;20028;-86
2022/01/22 01:10:34;;;;;;;13.13;4.75;;;5.40;99.90;;;;;;5031734;28;20481;-85
2022/01/22 01:12:59;;;;;;;9.68;4.03;;;5.40;99.90;;;;;;5030186;28;20033;-84
2022/01/22 01:15:43;;;;;;;11.27;4.13;;;5.40;99.90;;;;;;5027327;28;20060;-85
2022/01/22 01:34:14;;;;;;;9.57;4.80;;;5.50;99.90;;;;;;5047264;28;20047;-85
2022/01/22 01:36:41;;;;;;;14.82;5.20;;;5.40;99.90;;;;;;5019442;28;20135;-84
2022/01/22 01:39:11;;;;;;;12.02;4.82;;;5.50;99.90;;;;;;5038503;28;20407;-84
2022/01/22 01:44:03;;;;;;;14.55;6.00;;;5.50;99.90;;;;;;5041176;28;20036;-84
2022/01/22 01:46:32;;;;;;;12.23;5.75;;;5.50;99.90;;;;;;5031899;28;20021;-85
2022/01/22 01:48:59;;;;;;;11.55;5.22;;;5.50;99.90;;;;;;5016988;28;20044;-84
2022/01/22 01:51:27;;;;;;;12.05;5.03;;;5.50;99.90;;;;;;5050381;28;20029;-85
2022/01/22 01:54:23;;;;;;;17.35;6.30;;;5.50;99.90;;;;;;5035970;28;20104;-85
2022/01/22 01:59:24;;;;;;;16.33;8.05;;;5.50;99.90;;;;;;5056664;28;20064;-84
2022/01/22 02:01:51;;;;;;;12.98;5.90;;;5.40;99.90;;;;;;5021279;28;20022;-85
2022/01/22 02:04:17;;;;;;;10.18;6.22;;;5.50;99.90;;;;;;5036003;28;20033;-86
2022/01/22 02:06:43;;;;;;;9.30;5.88;;;5.40;99.90;;;;;;5049121;28;20006;-85
2022/01/22 02:09:10;;;;;;;14.57;7.10;;;5.40;99.90;;;;;;5060280;28;20013;-85
2022/01/22 02:11:38;;;;;;;12.88;7.18;;;5.50;99.90;;;;;;5044092;28;20006;-85
2022/01/22 02:14:10;;;;;;;14.45;7.18;;;5.50;99.90;;;;;;5042120;28;20021;-84
2022/01/22 02:24:53;;;;;;;11.45;7.38;;;5.50;99.90;;;;;;5055135;28;20587;-84
2022/01/22 02:27:20;;;;;;;14.30;7.85;;;5.50;99.90;;;;;;5030762;28;20029;-84
2022/01/22 02:29:46;;;;;;;11.95;7.80;;;5.50;99.90;;;;;;5033581;28;20033;-85
2022/01/22 02:34:56;;;;;;;11.13;7.00;;;5.50;99.90;;;;;;5050276;28;20040;-85
2022/01/22 02:37:24;;;;;;;13.20;7.00;;;5.50;99.90;;;;;;5049589;28;20082;-85
2022/01/22 02:40:05;;;;;;;14.32;7.80;;;5.50;99.90;;;;;;5032511;28;20036;-85
2022/01/22 02:42:34;;;;;;;13.82;7.55;;;5.50;99.90;;;;;;5019081;28;20028;-85
2022/01/22 02:44:59;;;;;;;15.85;7.72;;;5.50;99.90;;;;;;5049443;28;20053;-84
2022/01/22 02:47:25;;;;;;;12.50;7.90;;;5.50;99.90;;;;;;5030878;28;20047;-85
2022/01/22 02:49:51;;;;;;;13.13;8.15;;;5.50;99.90;;;;;;5034195;28;20033;-83
2022/01/22 02:52:20;;;;;;;14.10;8.50;;;5.50;99.90;;;;;;5020388;28;20062;-84
2022/01/22 02:54:46;;;;;;;17.75;8.25;;;5.50;99.90;;;;;;5035751;28;20399;-84
2022/01/22 02:57:13;;;;;;;17.02;8.38;;;5.40;99.90;;;;;;5022501;28;20403;-84
2022/01/22 02:59:39;;;;;;;14.55;8.60;;;5.40;99.90;;;;;;5031653;28;20021;-84
2022/01/22 03:02:06;;;;;;;16.75;8.50;;;5.40;99.90;;;;;;5019347;28;20029;-85
2022/01/22 03:04:31;;;;;;;15.80;8.45;;;5.50;99.90;;;;;;5035607;28;20106;-85
2022/01/22 03:06:58;;;;;;;16.73;8.55;;;5.50;99.90;;;;;;5042970;28;20024;-85
2022/01/22 03:09:30;;;;;;;16.10;9.00;;;5.50;99.90;;;;;;5029538;28;20032;-85
2022/01/22 03:22:17;;;;;;;11.75;7.30;;;5.60;99.90;;;;;;5040864;28;20445;-84
2022/01/22 03:27:29;;;;;;;16.63;7.22;;;5.70;99.90;;;;;;5036396;28;20437;-85
2022/01/22 03:29:56;;;;;;;14.27;6.93;;;5.60;99.90;;;;;;5022227;28;20041;-85
2022/01/22 03:32:25;;;;;;;16.45;9.60;;;5.70;99.90;;;;;;5038464;28;20024;-85
2022/01/22 03:35:12;;;;;;;12.00;7.75;;;5.70;99.90;;;;;;5046449;28;20037;-85
2022/01/22 03:37:40;;;;;;;12.00;8.48;;;5.70;99.90;;;;;;5052639;28;20053;-85
2022/01/22 03:40:12;;;;;;;18.92;9.18;;;5.70;99.90;;;;;;5018521;28;20336;-85
2022/01/22 03:42:38;;;;;;;16.88;9.35;;;5.80;99.90;;;;;;5026371;28;20025;-85
2022/01/22 03:45:06;;;;;;;16.00;8.60;;;5.70;99.90;;;;;;5026881;28;20063;-84
2022/01/22 03:47:33;;;;;;;17.25;8.48;;;5.80;99.90;;;;;;5033584;28;20040;-84
2022/01/22 03:49:59;;;;;;;16.80;9.15;;;5.80;99.90;;;;;;5039143;28;20032;-84
2022/01/22 03:52:24;;;;;;;16.08;9.02;;;5.80;99.90;;;;;;5037996;28;20120;-85
2022/01/22 03:54:50;;;;;;;17.02;8.70;;;5.80;99.90;;;;;;5028460;28;20100;-84
2022/01/22 03:57:16;;;;;;;14.80;8.18;;;5.80;99.90;;;;;;5031188;28;20033;-84
2022/01/22 03:59:42;;;;;;;14.27;8.25;;;5.80;99.90;;;;;;5037695;28;20052;-84
2022/01/22 04:02:38;;;;;;;17.80;8.52;;;5.80;99.90;;;;;;5021985;28;20047;-85
2022/01/22 04:04:58;;;;;;;15.60;7.75;;;5.80;99.90;;;;;;5045775;28;20053;-85
2022/01/22 04:09:53;;;;;;;16.50;8.68;;;5.80;99.90;;;;;;5039461;28;20056;-84
2022/01/22 04:12:25;;;;;;;14.25;9.07;;;5.80;99.90;;;;;;5032522;28;20044;-85
2022/01/22 04:15:00;;;;;;;12.30;7.30;;;5.80;99.90;;;;;;5035724;28;20017;-85
2022/01/22 04:25:31;;;;;;;11.57;6.47;;;5.80;99.90;;;;;;5055671;28;20036;-84
2022/01/22 04:27:57;;;;;;;14.80;7.13;;;5.80;99.90;;;;;;5035236;28;20028;-85
2022/01/22 04:30:24;;;;;;;13.43;6.90;;;5.80;99.90;;;;;;5023598;28;20427;-85
2022/01/22 04:32:50;;;;;;;14.00;7.13;;;5.80;99.90;;;;;;5037509;28;20052;-85
2022/01/22 04:35:19;;;;;;;13.45;6.80;;;5.80;99.90;;;;;;5024189;28;20064;-84
2022/01/22 04:37:46;;;;;;;12.93;7.30;;;5.80;99.90;;;;;;5052289;28;20044;-85
2022/01/22 04:40:12;;;;;;;10.40;6.70;;;5.80;99.90;;;;;;5032796;28;20032;-86
2022/01/22 04:42:40;;;;;;;11.10;6.47;;;5.80;99.90;;;;;;5025489;28;20032;-84
2022/01/22 04:45:14;;;;;;;12.15;6.22;;;5.80;99.90;;;;;;5025351;28;20415;-85
2022/01/22 04:55:37;;;;;;;;;;;5.80;99.90;;;;;;5055777;28;20116;-85
2022/01/22 04:58:03;;;;;;;13.73;6.82;;;5.80;99.90;;;;;;5020561;28;20418;-85
2022/01/22 05:00:31;;;;;;;10.98;5.82;;;5.80;99.90;;;;;;5039401;28;20406;-85
2022/01/22 05:02:58;;;;;;;12.23;5.63;;;5.80;99.90;;;;;;5044848;28;20025;-86
2022/01/22 05:05:24;;;;;;;12.23;5.63;;;5.80;99.90;;;;;;5031431;28;20116;-86
2022/01/22 05:07:50;;;;;;;11.40;5.25;;;5.80;99.90;;;;;;5039308;28;20116;-85
2022/01/22 05:10:16;;;;;;;10.55;5.53;;;5.80;99.90;;;;;;5037349;28;20065;-85
2022/01/22 05:12:42;;;;;;;9.95;5.05;;;5.80;99.90;;;;;;5046794;28;20014;-84
2022/01/22 05:15:08;;;;;;;8.70;4.28;;;5.80;99.90;;;;;;5030707;28;20036;-86
2022/01/22 05:17:37;;;;;;;7.90;3.88;;;5.90;99.90;;;;;;5061945;28;20040;-85
2022/01/22 05:20:14;;;;;;;8.40;3.72;;;5.90;99.90;;;;;;5022082;28;20033;-85
2022/01/22 05:25:19;;;;;;;8.38;3.40;;;5.90;99.90;;;;;;5064246;28;20032;-85
2022/01/22 05:38:22;;;;;;;6.47;3.00;;;6.00;99.90;;;;;;5050339;28;20048;-84
2022/01/22 05:40:48;;;;;;;9.20;3.08;;;6.00;99.90;;;;;;5055005;28;20379;-85
2022/01/22 05:43:14;;;;;;;8.32;2.88;;;6.00;99.90;;;;;;5038489;28;20052;-85
2022/01/22 05:45:41;;;;;;;6.90;3.15;;;6.00;99.90;;;;;;5045925;28;20025;-85
2022/01/22 05:48:07;;;;;;;6.60;2.80;;;6.00;99.90;;;;;;5032888;28;20484;-85
2022/01/22 05:50:44;;;;;;;8.70;3.67;;;6.00;99.90;;;;;;5039898;28;20028;-85
2022/01/22 05:53:25;;;;;;;10.48;3.88;;;6.00;99.90;;;;;;5028418;28;20025;-85
2022/01/22 06:01:21;;;;;;;6.75;3.97;;;6.00;99.90;;;;;;5050933;28;20485;-84
2022/01/22 06:03:47;;;;;;;9.82;4.88;;;6.00;99.90;;;;;;5038819;28;20034;-85
2022/01/22 06:06:13;;;;;;;11.48;4.78;;;5.90;99.90;;;;;;5032161;28;20479;-85
2022/01/22 06:08:51;;;;;;;14.15;4.88;;;5.90;99.90;;;;;;5026573;28;20498;-86
2022/01/22 06:11:23;;;;;;;9.73;5.38;;;5.90;99.90;;;;;;5023059;28;20037;-85
2022/01/22 06:13:49;;;;;;;14.85;6.32;;;5.90;99.90;;;;;;5037821;28;20036;-85
2022/01/22 06:16:16;;;;;;;12.00;6.75;;;5.90;99.90;;;;;;5032604;28;20109;-86
2022/01/22 06:18:43;;;;;;;11.20;6.95;;;5.90;99.90;;;;;;5025471;28;20116;-86
2022/01/22 06:21:09;;;;;;;13.00;7.82;;;5.90;99.90;;;;;;5037284;28;20021;-85
2022/01/22 06:23:35;;;;;;;18.88;8.70;;;5.90;99.90;;;;;;5035883;28;20056;-86
2022/01/22 06:26:02;;;;;;;14.82;8.32;;;5.90;99.90;;;;;;5016141;28;20084;-84
2022/01/22 06:28:28;;;;;;;18.40;7.95;;;5.90;99.90;;;;;;5016176;28;20025;-85
2022/01/22 06:30:54;;;;;;;16.23;8.73;;;5.90;99.90;;;;;;5043398;28;20473;-86
2022/01/22 06:33:19;;;;;;;16.60;8.32;;;5.80;99.90;;;;;;5035456;28;20473;-85
2022/01/22 06:35:45;;;;;;;13.23;7.80;;;5.80;99.90;;;;;;5018611;28;20041;-85
2022/01/22 06:38:10;;;;;;;15.27;7.78;;;5.90;99.90;;;;;;5031005;28;20071;-84
2022/01/22 06:43:05;;;;;;;15.75;8.07;;;5.80;99.90;;;;;;5053804;28;20467;-84
2022/01/22 06:45:31;;;;;;;12.55;7.43;;;5.80;99.90;;;;;;5019989;28;20135;-84
2022/01/22 06:47:58;;;;;;;14.88;8.10;;;5.90;99.90;;;;;;5033545;28;20145;-84
2022/01/22 06:50:24;;;;;;;16.98;8.50;;;5.80;99.90;;;;;;5046904;28;20066;-84
2022/01/22 06:52:57;;;;;;;12.27;7.70;;;5.90;99.90;;;;;;5024519;28;20385;-84
2022/01/22 06:55:41;;;;;;;16.35;8.40;;;5.90;99.90;;;;;;5005673;28;20044;-85
2022/01/22 06:58:07;;;;;;;14.00;8.05;;;5.90;99.90;;;;;;5035004;28;20516;-84
2022/01/22 07:00:33;;;;;;;19.08;8.52;;;5.90;99.90;;;;;;5045656;28;20041;-85
2022/01/22 07:02:58;;;;;;;13.50;7.90;;;5.90;99.90;;;;;;5025548;28;20139;-84
2022/01/22 07:05:24;;;;;;;14.45;8.20;;;5.90;99.90;;;;;;5034590;28;20462;-85
2022/01/22 07:07:50;;;;;;;10.98;6.63;;;5.90;99.90;;;;;;5018536;28;20025;-85
2022/01/22 07:10:15;;;;;;;10.82;6.65;;;5.90;99.90;;;;;;5047907;28;20118;-84
2022/01/22 07:12:41;;;;;;;12.65;6.22;;;6.00;99.90;;;;;;5032462;28;20046;-85
2022/01/22 07:15:08;;;;;;;12.38;6.65;;;6.00;99.90;;;;;;5026978;28;20024;-84
2022/01/22 07:17:36;;;;;;;9.60;5.50;;;6.00;99.90;;;;;;5034771;28;20394;-85
2022/01/22 07:20:05;;;;;;;10.57;6.10;;;6.00;99.90;;;;;;5027722;28;20410;-84
2022/01/22 07:24:57;;;;;;;8.68;5.38;;;6.10;99.90;;;;;;5039053;28;20417;-83
2022/01/22 07:27:23;;;;;;;9.77;5.55;;;6.10;99.90;;;;;;5025288;28;20422;-84
2022/01/22 07:29:49;;;;;;;8.52;5.40;;;6.10;99.90;;;;;;5030104;28;20497;-84
2022/01/22 07:32:26;;;;;;;8.07;5.35;;;6.10;99.90;;;;;;5016290;28;20021;-85
2022/01/22 07:34:51;;;;;;;8.25;4.47;;;6.10;99.90;;;;;;5032144;28;20568;-84
2022/01/22 07:37:17;;;;;;;10.30;5.10;;;6.20;99.90;;;;;;5035883;28;20053;-84
2022/01/22 07:39:43;;;;;;;9.30;5.15;;;6.20;99.90;;;;;;5028982;28;20087;-85
2022/01/22 07:42:09;;;;;;;9.35;4.78;;;6.20;99.90;;;;;;5045883;28;20487;-86
2022/01/22 07:44:34;;;;;;;10.70;5.65;;;6.20;99.90;;;;;;5019364;28;20108;-85
2022/01/22 07:47:00;;;;;;;8.68;4.50;;;6.20;99.90;;;;;;5020391;28;20474;-84
2022/01/22 07:49:25;;;;;;;12.10;5.07;;;6.20;99.90;;;;;;5043830;28;20053;-84
2022/01/22 07:51:51;;;;;;;10.30;5.70;;;6.20;99.90;;;;;;5030034;28;20029;-84
2022/01/22 07:54:17;;;;;;;11.00;5.50;;;6.20;99.90;;;;;;5034078;28;20105;-85
2022/01/22 07:56:43;;;;;;;8.85;4.60;;;6.20;99.90;;;;;;5030900;28;20048;-84
2022/01/22 07:59:08;;;;;;;9.27;4.32;;;6.30;99.90;;;;;;5019464;28;20063;-83
2022/01/22 08:01:34;;;;;;;7.80;4.25;;;6.30;99.90;;;;;;5030141;28;20017;-84
2022/01/22 08:04:01;;;;;;;11.38;4.95;;;6.30;99.90;;;;;;5049993;28;20096;-84
2022/01/22 08:06:26;;;;;;;9.23;4.40;;;6.30;99.90;;;;;;5021096;28;20029;-84
2022/01/22 08:08:52;;;;;;;8.43;3.85;;;6.30;99.90;;;;;;5034409;28;20043;-85
2022/01/22 08:11:18;;;;;;;10.32;3.97;;;6.30;99.90;;;;;;5038526;28;20032;-84
2022/01/22 08:13:43;;;;;;;7.47;3.80;;;6.30;99.90;;;;;;5049383;28;20021;-85
2022/01/22 08:16:09;;;;;;;7.85;4.47;;;6.40;99.90;;;;;;5030384;28;20121;-85
2022/01/22 08:18:34;;;;;;;9.45;4.30;;;6.40;99.90;;;;;;5039903;28;20029;-84
2022/01/22 08:21:00;;;;;;;9.05;4.40;;;6.40;99.90;;;;;;5042806;28;20467;-85
2022/01/22 08:23:26;;;;;;;10.98;4.65;;;6.40;99.90;;;;;;5046904;28;20017;-86
2022/01/22 08:25:51;;;;;;;8.75;4.90;;;6.40;99.90;;;;;;5018064;28;20124;-84
2022/01/22 08:31:15;;;;;;;9.75;4.35;;;6.40;99.90;;;;;;5040555;28;20040;-83
2022/01/22 08:36:24;;;;;;;7.68;4.43;;;6.50;99.90;;;;;;5041148;28;20648;-84
2022/01/22 08:38:53;;;;;;;8.60;4.00;;;6.40;99.90;;;;;;5020561;28;20030;-86
2022/01/22 08:41:19;;;;;;;10.40;5.03;;;6.50;99.90;;;;;;5037785;28;20030;-84
2022/01/22 08:43:44;;;;;;;9.48;4.60;;;6.50;99.90;;;;;;5020483;28;20018;-83
2022/01/22 08:46:10;;;;;;;9.65;4.70;;;6.50;99.90;;;;;;5020113;28;20410;-83
2022/01/22 08:48:35;;;;;;;10.73;5.00;;;6.50;99.90;;;;;;5043572;28;20033;-84
2022/01/22 08:51:01;;;;;;;8.63;3.63;;;6.50;99.90;;;;;;5044412;28;20032;-85
2022/01/22 08:53:27;;;;;;;9.00;4.00;;;6.50;99.90;;;;;;5040890;28;20035;-88
2022/01/22 08:55:53;;;;;;;8.55;3.88;;;6.60;99.90;;;;;;5034209;28;20116;-84
2022/01/22 08:58:18;;;;;;;6.95;3.65;;;6.60;99.90;;;;;;5019164;28;20119;-86
2022/01/22 09:00:45;;;;;;;6.68;3.00;;;6.60;99.90;;;;;;5034984;28;20033;-86
2022/01/22 09:03:13;;;;;;;7.97;3.13;;;6.60;99.90;;;;;;5023440;28;20041;-87
2022/01/22 09:05:38;;;;;;;9.13;3.70;;;6.60;99.90;;;;;;5032340;28;20029;-87
2022/01/22 09:08:05;;;;;;;12.02;4.25;;;6.60;99.90;;;;;;5034418;28;20083;-86
2022/01/22 09:10:31;;;;;;;5.15;2.85;;;6.60;99.90;;;;;;5026303;28;20021;-86
2022/01/22 09:12:56;;;;;;;9.45;3.50;;;6.70;99.90;;;;;;5041848;28;20033;-84
2022/01/22 09:15:22;;;;;;;8.32;3.63;;;6.70;99.90;;;;;;5042760;28;20052;-85
2022/01/22 09:17:48;;;;;;;8.55;3.63;;;6.70;99.90;;;;;;5030898;28;20055;-84
2022/01/22 09:20:30;;;;;;;6.15;2.78;;;6.60;99.90;;;;;;5017965;28;20029;-84
2022/01/22 09:22:57;;;;;;;7.90;3.40;;;6.70;99.90;;;;;;5034906;28;20075;-84
2022/01/22 09:25:22;;;;;;;5.88;2.90;;;6.70;99.90;;;;;;5019085;28;20068;-83
2022/01/22 09:27:48;;;;;;;8.68;3.83;;;6.70;99.90;;;;;;5029914;28;20052;-84
2022/01/22 09:30:13;;;;;;;7.35;3.42;;;6.70;99.90;;;;;;5035453;28;20024;-84
2022/01/22 09:32:39;;;;;;;6.63;2.67;;;6.70;99.90;;;;;;5043907;28;20013;-83
2022/01/22 09:35:05;;;;;;;6.72;3.45;;;6.80;99.90;;;;;;5050584;28;20024;-83
2022/01/22 09:37:31;;;;;;;7.20;3.22;;;6.80;99.90;;;;;;5035586;28;20087;-84
2022/01/22 09:39:57;;;;;;;9.50;3.53;;;6.80;99.90;;;;;;5030540;28;20071;-84
2022/01/22 09:42:23;;;;;;;5.22;2.85;;;6.80;99.90;;;;;;5037881;28;20051;-85
2022/01/22 09:44:49;;;;;;;6.72;3.00;;;6.80;99.90;;;;;;5033489;28;20025;-83
2022/01/22 09:47:19;;;;;;;5.93;2.72;;;6.90;99.90;;;;;;5033484;28;20083;-84
2022/01/22 09:49:45;;;;;;;5.50;2.50;;;6.80;99.90;;;;;;5016733;28;20029;-84
2022/01/22 09:52:10;;;;;;;8.07;3.33;;;6.80;99.90;;;;;;5032440;28;20127;-83
2022/01/22 09:54:36;;;;;;;5.75;3.35;;;6.90;99.90;;;;;;5048830;28;20020;-83
2022/01/22 09:57:04;;;;;;;7.68;3.00;;;6.90;99.90;;;;;;5021714;28;20124;-83
2022/01/22 09:59:30;;;;;;;9.15;4.20;;;6.90;99.90;;;;;;5045896;28;20441;-83
2022/01/22 10:02:19;;;;;;;9.73;4.28;;;6.90;99.90;;;;;;5031267;28;20028;-83
2022/01/22 10:04:48;;;;;;;7.50;3.70;;;6.90;99.90;;;;;;5016875;28;20025;-84
2022/01/22 10:07:21;;;;;;;5.85;3.30;;;6.90;99.90;;;;;;5019737;28;20113;-85
2022/01/22 10:10:04;;;;;;;5.67;3.67;;;6.90;99.90;;;;;;5017772;28;20018;-84
2022/01/22 10:12:49;;;;;;;5.43;3.60;;;6.90;99.90;;;;;;5030847;28;20268;-84
2022/01/22 10:15:22;;;;;;;7.40;3.58;;;6.90;99.90;;;;;;5056264;28;20021;-84
2022/01/22 10:17:48;;;;;;;8.43;3.72;;;7.00;99.90;;;;;;5058844;28;20041;-84
2022/01/22 10:20:29;;;;;;;8.80;4.03;;;6.90;99.90;;;;;;5057336;28;20052;-85
2022/01/22 10:23:03;;;;;;;8.45;3.90;;;6.90;99.90;;;;;;5059632;28;20040;-84
2022/01/22 10:25:43;;;;;;;7.57;3.58;;;7.00;99.90;;;;;;5078284;28;20047;-82
2022/01/22 10:28:20;;;;;;;7.30;3.67;;;7.00;99.90;;;;;;5044785;28;20005;-83
2022/01/22 10:30:47;;;;;;;6.93;3.83;;;7.00;99.90;;;;;;5050523;28;20005;-84
2022/01/22 10:33:33;;;;;;;5.70;3.55;;;7.00;99.90;;;;;;5045848;28;20025;-82
2022/01/22 10:36:19;;;;;;;9.13;3.95;;;7.00;99.90;;;;;;5056416;28;20045;-84
2022/01/22 10:38:51;;;;;;;6.57;3.38;;;7.00;99.90;;;;;;5044334;28;20029;-84
2022/01/22 10:41:30;;;;;;;5.10;3.42;;;7.00;99.90;;;;;;5045907;28;20005;-84
2022/01/22 10:43:58;;;;;;;7.38;4.28;;;7.00;99.90;;;;;;5055827;28;20027;-84
2022/01/22 10:46:34;;;;;;;7.28;4.45;;;7.00;99.90;;;;;;5044835;28;20203;-82
2022/01/22 10:49:21;;;;;;;8.07;4.38;;;7.10;99.90;;;;;;5041096;28;20044;-84
2022/01/22 10:51:54;;;;;;;7.55;4.00;;;7.00;99.90;;;;;;5020714;28;20022;-84
2022/01/22 10:54:22;;;;;;;7.87;3.77;;;7.00;99.90;;;;;;5031321;28;20018;-84
2022/01/22 10:56:48;;;;;;;9.65;4.68;;;7.00;99.90;;;;;;5025693;28;20029;-84
2022/01/22 10:59:17;;;;;;;8.35;4.30;;;7.00;99.90;;;;;;5042814;28;20065;-84
2022/01/22 11:01:52;;;;;;;6.60;4.07;;;7.00;99.90;;;;;;5032254;28;20028;-84
2022/01/22 11:04:22;;;;;;;6.47;3.53;;;7.00;99.90;;;;;;5030176;28;20026;-86
2022/01/22 11:07:05;;;;;;;7.28;4.03;;;7.00;99.90;;;;;;5024745;28;20013;-85
2022/01/22 11:09:32;;;;;;;9.10;4.20;;;7.10;99.90;;;;;;5020266;28;20040;-85
2022/01/22 11:11:59;;;;;;;14.65;4.40;;;7.00;99.90;;;;;;5031637;28;20436;-85
2022/01/22 11:14:27;;;;;;;7.63;4.03;;;7.10;99.90;;;;;;5021459;28;20014;-84
2022/01/22 11:16:53;;;;;;;9.93;5.13;;;7.10;99.90;;;;;;5043198;28;20109;-86
2022/01/22 11:19:22;;;;;;;8.00;4.63;;;7.10;99.90;;;;;;5028649;28;20087;-85
2022/01/22 11:21:52;;;;;;;8.27;4.70;;;7.10;99.90;;;;;;5051903;28;20029;-85
2022/01/22 11:24:24;;;;;;;9.43;5.18;;;7.20;99.90;;;;;;5020316;28;20104;-85
2022/01/22 11:26:59;;;;;;;11.32;5.78;;;7.10;99.90;;;;;;5035244;28;20020;-85
2022/01/22 11:29:30;;;;;;;11.18;5.47;;;7.20;99.90;;;;;;5021444;28;20049;-85
2022/01/22 11:31:58;;;;;;;7.80;5.25;;;7.10;99.90;;;;;;5031710;28;20029;-85
2022/01/22 11:34:27;;;;;;;8.95;4.93;;;7.10;99.90;;;;;;5022762;28;20150;-84
2022/01/22 11:37:16;;;;;;;11.70;5.82;;;7.20;99.90;;;;;;5039248;28;20132;-85
2022/01/22 11:39:42;;;;;;;14.57;6.47;;;7.20;99.90;;;;;;5022284;28;20546;-85
2022/01/22 11:42:08;;;;;;;10.88;6.28;;;7.20;99.90;;;;;;5052403;28;20067;-84
2022/01/22 11:45:12;;;;;;;10.30;6.22;;;7.20;99.90;;;;;;5026206;28;20017;-84
2022/01/22 11:47:31;;;;;;;11.73;6.15;;;7.20;99.90;;;;;;5039433;28;20037;-85
2022/01/22 11:50:09;;;;;;;10.13;5.05;;;7.20;99.90;;;;;;5019254;28;20128;-86
2022/01/22 11:52:40;;;;;;;10.80;4.85;;;7.30;99.90;;;;;;5021917;28;20104;-85
2022/01/22 11:55:12;;;;;;;8.68;5.80;;;7.30;99.90;;;;;;5034435;28;20021;-85
2022/01/22 11:57:40;;;;;;;12.70;5.93;;;7.30;99.90;;;;;;5044917;28;20033;-85
2022/01/22 12:00:26;;;;;;;10.52;5.57;;;7.30;99.90;;;;;;5022640;28;20036;-86
2022/01/22 12:03:06;;;;;;;7.28;5.00;;;7.40;99.90;;;;;;5015302;28;20120;-85
2022/01/22 12:05:33;;;;;;;11.52;5.53;;;7.40;99.90;;;;;;5030053;28;20031;-88
2022/01/22 12:08:00;;;;;;;10.85;6.28;;;7.40;99.90;;;;;;5051143;28;20120;-86
2022/01/22 12:10:41;;;;;;;10.23;6.05;;;7.40;99.90;;;;;;5016264;28;20022;-88
2022/01/22 12:16:08;;;;;;;9.10;5.22;;;7.40;99.90;;;;;;5034610;28;20079;-85
2022/01/22 12:18:39;;;;;;;10.02;5.38;;;7.40;99.90;;;;;;5015912;28;20874;-86
2022/01/22 12:23:43;;;;;;;11.52;5.70;;;7.40;99.90;;;;;;5049005;28;20037;-86
2022/01/22 12:26:09;;;;;;;7.40;4.75;;;7.50;99.90;;;;;;5035681;28;20469;-87
2022/01/22 12:28:43;;;;;;;8.32;5.07;;;7.40;99.90;;;;;;5027663;28;20029;-86
2022/01/22 12:31:11;;;;;;;7.57;4.40;;;7.50;99.90;;;;;;5027186;28;20458;-89
2022/01/22 12:33:37;;;;;;;7.07;3.90;;;7.50;99.90;;;;;;5021344;28;20037;-88
2022/01/22 12:36:10;;;;;;;8.32;4.55;;;7.50;99.90;;;;;;5016847;28;20050;-88
2022/01/22 12:38:45;;;;;;;9.27;4.75;;;7.50;99.90;;;;;;5023580;28;20035;-85
2022/01/22 12:44:00;;;;;;;12.23;4.57;;;7.50;99.90;;;;;;5035536;28;20030;-87
2022/01/22 12:46:28;;;;;;;8.38;4.10;;;7.60;99.90;;;;;;5021674;28;20025;-88
2022/01/22 12:48:56;;;;;;;7.75;4.13;;;7.60;99.90;;;;;;5025441;28;20049;-88
2022/01/22 12:51:25;;;;;;;7.15;3.83;;;7.60;99.90;;;;;;5016032;28;20133;-88
2022/01/22 12:53:51;;;;;;;7.40;4.22;;;7.60;99.90;;;;;;5034525;28;20112;-88
2022/01/22 12:59:09;;;;;;;6.85;3.70;;;7.60;99.90;;;;;;5052817;28;20040;-85
2022/01/22 13:01:45;;;;;;;9.00;4.03;;;7.60;99.90;;;;;;5047050;28;20095;-88
2022/01/22 13:04:10;;;;;;;9.52;4.18;;;7.60;99.90;;;;;;5045181;28;20057;-86
2022/01/22 13:06:47;;;;;;;10.73;5.78;;;7.60;99.90;;;;;;5034976;28;20634;-86
2022/01/22 13:09:14;;;;;;;9.35;6.28;;;7.60;99.90;;;;;;5041308;28;20475;-85
2022/01/22 13:11:48;;;;;;;10.77;6.70;;;7.60;99.90;;;;;;5043674;28;20025;-85
2022/01/22 13:14:16;;;;;;;9.90;6.97;;;7.60;99.90;;;;;;5026992;28;20071;-86
2022/01/22 13:16:48;;;;;;;11.93;7.93;;;7.60;99.90;;;;;;5028252;28;20021;-87
2022/01/22 13:19:14;;;;;;;12.60;8.25;;;7.60;99.90;;;;;;5030148;28;20128;-87
2022/01/22 13:21:49;;;;;;;14.80;9.20;;;7.60;99.90;;;;;;5026992;28;20030;-88
2022/01/22 13:24:15;;;;;;;15.52;10.20;;;7.60;99.90;;;;;;5017843;28;20033;-87
2022/01/22 13:26:42;;;;;;;13.60;10.02;;;7.50;99.90;;;;;;5033906;28;20029;-87
2022/01/22 13:29:36;;;;;;;14.40;9.45;;;7.50;99.90;;;;;;5023829;28;20030;-88
2022/01/22 13:40:59;;;;;;;15.50;10.43;;;7.40;99.90;;;;;;5037957;28;20038;-90
2022/01/22 13:49:40;;;;;;;16.77;11.60;;;7.40;99.90;;;;;;5056473;28;20087;-90
2022/01/22 13:52:16;;;;;;;18.50;10.95;;;7.40;99.90;;;;;;5040033;28;20470;-89
2022/01/22 13:54:53;;;;;;;20.48;11.18;;;7.30;99.90;;;;;;5025275;28;20021;-93
2022/01/22 13:57:22;;;;;;;16.25;9.73;;;7.30;99.90;;;;;;5022794;28;20083;-90
2022/01/22 13:59:52;;;;;;;17.33;10.10;;;7.30;99.90;;;;;;5035702;28;20031;-89
2022/01/22 14:04:51;;;;;;;13.18;8.32;;;7.30;99.90;;;;;;5073656;28;20041;-89
2022/01/22 14:07:31;;;;;;;9.98;7.50;;;7.40;99.90;;;;;;5043872;28;20456;-88
2022/01/22 14:10:05;;;;;;;11.13;7.78;;;7.40;99.90;;;;;;5024306;28;20025;-90
2022/01/22 14:12:40;;;;;;;13.13;7.95;;;7.40;99.90;;;;;;5022141;28;20021;-90
2022/01/22 14:15:29;;;;;;;14.32;8.60;;;7.40;99.90;;;;;;5020153;28;20450;-89
2022/01/22 14:20:53;;;;;;;11.43;6.50;;;7.40;99.90;;;;;;5040820;28;20038;-87
2022/01/22 14:23:22;;;;;;;12.50;7.47;;;7.40;99.90;;;;;;5018758;28;20029;-86
2022/01/22 14:25:55;;;;;;;12.50;7.25;;;7.40;99.90;;;;;;5023612;28;20095;-87
2022/01/22 14:28:51;;;;;;;12.77;8.00;;;7.40;99.90;;;;;;5028591;28;20017;-86
2022/01/22 14:31:30;;;;;;;13.93;8.00;;;7.40;99.90;;;;;;5019303;28;20087;-87
2022/01/22 14:34:00;;;;;;;10.98;7.10;;;7.40;99.90;;;;;;5050211;28;20084;-84
2022/01/22 14:36:28;;;;;;;11.90;8.02;;;7.50;99.90;;;;;;5022897;28;20128;-85
2022/01/22 14:39:29;;;;;;;12.48;7.80;;;7.40;99.90;;;;;;5018910;28;20067;-85
2022/01/22 14:44:40;;;;;;;11.80;7.72;;;7.40;99.90;;;;;;5041219;28;20036;-85
2022/01/22 14:47:18;;;;;;;11.63;6.97;;;7.40;99.90;;;;;;5022543;28;20049;-85
2022/01/22 14:49:50;;;;;;;10.68;6.68;;;7.40;99.90;;;;;;5019928;28;20105;-84
2022/01/22 14:52:19;;;;;;;13.10;8.45;;;7.40;99.90;;;;;;5021445;28;20075;-85
2022/01/22 14:54:47;;;;;;;14.57;7.40;;;7.40;99.90;;;;;;5030726;28;20021;-85
2022/01/22 14:57:18;;;;;;;15.13;8.77;;;7.40;99.90;;;;;;5019849;28;20026;-85
2022/01/22 14:59:44;;;;;;;11.45;7.60;;;7.50;99.90;;;;;;5030004;28;20029;-84
2022/01/22 15:02:11;;;;;;;15.30;8.80;;;7.40;99.90;;;;;;5033230;28;20017;-84
2022/01/22 15:04:38;;;;;;;12.43;8.10;;;7.40;99.90;;;;;;5031710;28;20033;-85
2022/01/22 15:07:07;;;;;;;13.02;8.80;;;7.40;99.90;;;;;;5049559;28;20021;-85
2022/01/22 15:09:34;;;;;;;14.13;9.30;;;7.40;99.90;;;;;;5018004;28;20026;-83